KENW/ENW METAR and TAF weather

Enter ICAO airport designator
Station Type Date Time Source
KENW METAR 2022/11/30 18:28 UTC NOAA

KENW 301828Z 28019G31KT 10SM OVC030 M02/M10 A2995 RMK AO2 PK WND 25035/1809 T10221100


Station Type Date Time Source
KENW Decoded METAR 2022/11/30 18:28 UTC NOAA

KENOSHA REGIONAL AIRPORT, WI, United States (KENW) 42-36N 087-56W 219M
Nov 30, 2022 - 01:28 PM EST / 2022.11.30 1828 UTC
Wind: from the W (280 degrees) at 22 MPH (19 KT) gusting to 36 MPH (31 KT):0
Visibility: 10 mile(s):0
Sky conditions: overcast
Temperature: 28.0 F (-2.2 C)
Windchill: 14 F (-10 C):1
Dew Point: 14.0 F (-10.0 C)
Relative Humidity: 55%
Pressure (altimeter): 29.95 in. Hg (1014 hPa)
ob: KENW 301828Z 28019G31KT 10SM OVC030 M02/M10 A2995 RMK AO2 PK WND 25035/1809 T10221100
cycle: 18

Station Type Date Time Source
KENW TAF 2022/11/30 18:24 UTC NOAA

TAF KENW 301722Z 3018/0118 27021G32KT P6SM -SN BKN025
FM302000 27021G33KT P6SM SCT035
FM010000 28018G28KT P6SM FEW250
FM010700 27009KT P6SM SKC
FM011500 26007KT P6SM FEW250

Example: see airport list